sensor_id;sensor_type;location;lat;lon;timestamp;P1;durP1;ratioP1;P2;durP2;ratioP2
20731;SDS011;10527;52.124;5.196;2022-08-01T00:00:35;2.92;;;2.22;;
20731;SDS011;10527;52.124;5.196;2022-08-01T00:03:02;3.53;;;2.22;;
20731;SDS011;10527;52.124;5.196;2022-08-01T00:05:30;3.45;;;1.83;;
20731;SDS011;10527;52.124;5.196;2022-08-01T00:07:58;3.53;;;2.28;;
20731;SDS011;10527;52.124;5.196;2022-08-01T00:10:25;4.07;;;2.30;;
20731;SDS011;10527;52.124;5.196;2022-08-01T00:12:52;4.00;;;2.60;;
20731;SDS011;10527;52.124;5.196;2022-08-01T00:15:19;3.83;;;2.40;;
20731;SDS011;10527;52.124;5.196;2022-08-01T00:17:46;5.32;;;2.72;;
20731;SDS011;10527;52.124;5.196;2022-08-01T00:20:13;3.65;;;2.58;;
20731;SDS011;10527;52.124;5.196;2022-08-01T00:22:40;4.50;;;2.63;;
20731;SDS011;10527;52.124;5.196;2022-08-01T00:25:08;3.72;;;2.78;;
20731;SDS011;10527;52.124;5.196;2022-08-01T00:27:35;3.17;;;2.88;;
20731;SDS011;10527;52.124;5.196;2022-08-01T00:30:03;4.57;;;2.78;;
20731;SDS011;10527;52.124;5.196;2022-08-01T00:32:40;3.38;;;2.28;;
20731;SDS011;10527;52.124;5.196;2022-08-01T00:35:10;4.43;;;2.40;;
20731;SDS011;10527;52.124;5.196;2022-08-01T00:37:39;4.68;;;2.55;;
20731;SDS011;10527;52.124;5.196;2022-08-01T00:40:06;5.03;;;2.50;;
20731;SDS011;10527;52.124;5.196;2022-08-01T00:42:34;4.70;;;2.75;;
20731;SDS011;10527;52.124;5.196;2022-08-01T00:45:06;3.30;;;2.22;;
20731;SDS011;10527;52.124;5.196;2022-08-01T00:47:34;5.13;;;3.03;;
20731;SDS011;10527;52.124;5.196;2022-08-01T00:50:02;5.47;;;2.78;;
20731;SDS011;10527;52.124;5.196;2022-08-01T00:52:31;5.65;;;2.95;;
20731;SDS011;10527;52.124;5.196;2022-08-01T00:54:59;4.60;;;2.95;;
20731;SDS011;10527;52.124;5.196;2022-08-01T00:57:27;4.95;;;3.13;;
20731;SDS011;10527;52.124;5.196;2022-08-01T01:00:15;5.38;;;3.45;;
20731;SDS011;10527;52.124;5.196;2022-08-01T01:02:42;8.88;;;4.32;;
20731;SDS011;10527;52.124;5.196;2022-08-01T01:05:10;5.68;;;3.83;;
20731;SDS011;10527;52.124;5.196;2022-08-01T01:07:42;5.10;;;3.75;;
20731;SDS011;10527;52.124;5.196;2022-08-01T01:10:43;5.65;;;4.10;;
20731;SDS011;10527;52.124;5.196;2022-08-01T01:16:27;6.18;;;4.25;;
20731;SDS011;10527;52.124;5.196;2022-08-01T01:18:59;5.43;;;3.83;;
20731;SDS011;10527;52.124;5.196;2022-08-01T01:24:26;6.82;;;4.38;;
20731;SDS011;10527;52.124;5.196;2022-08-01T01:30:08;6.45;;;3.78;;
20731;SDS011;10527;52.124;5.196;2022-08-01T01:32:38;5.57;;;3.88;;
20731;SDS011;10527;52.124;5.196;2022-08-01T01:35:10;5.47;;;3.95;;
20731;SDS011;10527;52.124;5.196;2022-08-01T01:37:43;4.90;;;3.72;;
20731;SDS011;10527;52.124;5.196;2022-08-01T01:40:14;4.88;;;3.53;;
20731;SDS011;10527;52.124;5.196;2022-08-01T01:42:44;6.43;;;3.72;;
20731;SDS011;10527;52.124;5.196;2022-08-01T01:45:12;6.05;;;4.07;;
20731;SDS011;10527;52.124;5.196;2022-08-01T01:47:42;4.95;;;3.17;;
20731;SDS011;10527;52.124;5.196;2022-08-01T01:50:11;6.40;;;4.03;;
20731;SDS011;10527;52.124;5.196;2022-08-01T01:52:40;7.40;;;4.22;;
20731;SDS011;10527;52.124;5.196;2022-08-01T01:55:10;5.88;;;4.15;;
20731;SDS011;10527;52.124;5.196;2022-08-01T01:57:40;6.32;;;4.22;;
20731;SDS011;10527;52.124;5.196;2022-08-01T02:00:11;5.43;;;3.92;;
20731;SDS011;10527;52.124;5.196;2022-08-01T02:02:40;7.88;;;4.95;;
20731;SDS011;10527;52.124;5.196;2022-08-01T02:05:10;6.45;;;3.95;;
20731;SDS011;10527;52.124;5.196;2022-08-01T02:07:39;7.20;;;4.13;;
20731;SDS011;10527;52.124;5.196;2022-08-01T02:10:08;7.72;;;4.03;;
20731;SDS011;10527;52.124;5.196;2022-08-01T02:12:41;6.40;;;3.75;;
20731;SDS011;10527;52.124;5.196;2022-08-01T02:15:12;6.10;;;4.00;;
20731;SDS011;10527;52.124;5.196;2022-08-01T02:17:42;5.82;;;3.47;;
20731;SDS011;10527;52.124;5.196;2022-08-01T02:20:14;6.78;;;3.80;;
20731;SDS011;10527;52.124;5.196;2022-08-01T02:22:46;5.97;;;3.70;;
20731;SDS011;10527;52.124;5.196;2022-08-01T02:30:53;5.95;;;4.03;;
20731;SDS011;10527;52.124;5.196;2022-08-01T02:33:35;5.25;;;3.20;;
20731;SDS011;10527;52.124;5.196;2022-08-01T02:36:05;5.47;;;3.40;;
20731;SDS011;10527;52.124;5.196;2022-08-01T02:38:54;7.00;;;3.95;;
20731;SDS011;10527;52.124;5.196;2022-08-01T02:41:23;6.10;;;3.92;;
20731;SDS011;10527;52.124;5.196;2022-08-01T02:43:58;5.97;;;3.80;;
20731;SDS011;10527;52.124;5.196;2022-08-01T02:46:31;5.00;;;3.90;;
20731;SDS011;10527;52.124;5.196;2022-08-01T02:49:05;5.05;;;3.47;;
20731;SDS011;10527;52.124;5.196;2022-08-01T02:51:36;4.57;;;3.55;;
20731;SDS011;10527;52.124;5.196;2022-08-01T02:54:08;5.00;;;3.80;;
20731;SDS011;10527;52.124;5.196;2022-08-01T02:56:37;4.38;;;3.13;;
20731;SDS011;10527;52.124;5.196;2022-08-01T02:59:16;4.57;;;3.00;;
20731;SDS011;10527;52.124;5.196;2022-08-01T03:01:54;3.85;;;2.95;;
20731;SDS011;10527;52.124;5.196;2022-08-01T03:04:25;5.15;;;3.05;;
20731;SDS011;10527;52.124;5.196;2022-08-01T03:06:54;4.35;;;3.20;;
20731;SDS011;10527;52.124;5.196;2022-08-01T03:09:25;5.05;;;3.67;;
20731;SDS011;10527;52.124;5.196;2022-08-01T03:11:59;4.38;;;3.15;;
20731;SDS011;10527;52.124;5.196;2022-08-01T03:14:30;4.60;;;3.25;;
20731;SDS011;10527;52.124;5.196;2022-08-01T03:17:02;3.72;;;2.90;;
20731;SDS011;10527;52.124;5.196;2022-08-01T03:19:32;4.03;;;2.72;;
20731;SDS011;10527;52.124;5.196;2022-08-01T03:22:05;4.70;;;3.10;;
20731;SDS011;10527;52.124;5.196;2022-08-01T03:24:37;4.57;;;3.15;;
20731;SDS011;10527;52.124;5.196;2022-08-01T03:27:08;3.60;;;2.50;;
20731;SDS011;10527;52.124;5.196;2022-08-01T03:29:40;4.55;;;3.08;;
20731;SDS011;10527;52.124;5.196;2022-08-01T03:32:09;5.22;;;3.58;;
20731;SDS011;10527;52.124;5.196;2022-08-01T03:34:39;3.60;;;2.80;;
20731;SDS011;10527;52.124;5.196;2022-08-01T03:37:09;6.85;;;2.92;;
20731;SDS011;10527;52.124;5.196;2022-08-01T03:40:06;3.97;;;2.55;;
20731;SDS011;10527;52.124;5.196;2022-08-01T03:42:53;3.67;;;2.92;;
20731;SDS011;10527;52.124;5.196;2022-08-01T03:45:30;4.07;;;3.05;;
20731;SDS011;10527;52.124;5.196;2022-08-01T03:48:13;5.28;;;3.78;;
20731;SDS011;10527;52.124;5.196;2022-08-01T03:50:52;7.03;;;4.00;;
20731;SDS011;10527;52.124;5.196;2022-08-01T03:53:23;4.72;;;4.10;;
20731;SDS011;10527;52.124;5.196;2022-08-01T03:55:56;5.78;;;4.20;;
20731;SDS011;10527;52.124;5.196;2022-08-01T03:58:30;5.32;;;4.38;;
20731;SDS011;10527;52.124;5.196;2022-08-01T04:00:59;6.55;;;4.80;;
20731;SDS011;10527;52.124;5.196;2022-08-01T04:03:27;6.05;;;4.75;;
20731;SDS011;10527;52.124;5.196;2022-08-01T04:05:54;6.82;;;4.80;;
20731;SDS011;10527;52.124;5.196;2022-08-01T04:08:21;9.35;;;4.90;;
20731;SDS011;10527;52.124;5.196;2022-08-01T04:10:55;5.75;;;4.20;;
20731;SDS011;10527;52.124;5.196;2022-08-01T04:13:24;5.90;;;4.55;;
20731;SDS011;10527;52.124;5.196;2022-08-01T04:16:01;6.80;;;4.75;;
20731;SDS011;10527;52.124;5.196;2022-08-01T04:18:28;6.78;;;4.82;;
20731;SDS011;10527;52.124;5.196;2022-08-01T04:20:55;7.82;;;5.05;;
20731;SDS011;10527;52.124;5.196;2022-08-01T04:23:24;5.97;;;4.47;;
20731;SDS011;10527;52.124;5.196;2022-08-01T04:25:57;7.68;;;4.72;;
20731;SDS011;10527;52.124;5.196;2022-08-01T04:28:31;8.55;;;5.45;;
20731;SDS011;10527;52.124;5.196;2022-08-01T04:31:06;7.93;;;5.55;;
20731;SDS011;10527;52.124;5.196;2022-08-01T04:33:35;5.28;;;4.53;;
20731;SDS011;10527;52.124;5.196;2022-08-01T04:36:10;6.53;;;4.63;;
20731;SDS011;10527;52.124;5.196;2022-08-01T04:38:42;5.43;;;4.22;;
20731;SDS011;10527;52.124;5.196;2022-08-01T04:41:16;5.13;;;4.07;;
20731;SDS011;10527;52.124;5.196;2022-08-01T04:43:45;5.80;;;4.47;;
20731;SDS011;10527;52.124;5.196;2022-08-01T04:46:12;6.55;;;4.40;;
20731;SDS011;10527;52.124;5.196;2022-08-01T04:48:41;6.68;;;4.40;;
20731;SDS011;10527;52.124;5.196;2022-08-01T04:51:12;5.22;;;4.05;;
20731;SDS011;10527;52.124;5.196;2022-08-01T04:53:44;5.35;;;4.07;;
20731;SDS011;10527;52.124;5.196;2022-08-01T04:58:56;5.45;;;3.45;;
20731;SDS011;10527;52.124;5.196;2022-08-01T05:01:48;4.95;;;3.28;;
20731;SDS011;10527;52.124;5.196;2022-08-01T05:04:17;3.70;;;3.10;;
20731;SDS011;10527;52.124;5.196;2022-08-01T05:06:44;5.50;;;2.90;;
20731;SDS011;10527;52.124;5.196;2022-08-01T05:09:11;4.22;;;2.83;;
20731;SDS011;10527;52.124;5.196;2022-08-01T05:11:38;3.58;;;2.55;;
20731;SDS011;10527;52.124;5.196;2022-08-01T05:14:05;2.97;;;2.38;;
20731;SDS011;10527;52.124;5.196;2022-08-01T05:16:32;3.13;;;2.28;;
20731;SDS011;10527;52.124;5.196;2022-08-01T05:18:59;2.50;;;1.98;;
20731;SDS011;10527;52.124;5.196;2022-08-01T05:21:26;3.03;;;1.98;;
20731;SDS011;10527;52.124;5.196;2022-08-01T05:23:52;4.30;;;1.90;;
20731;SDS011;10527;52.124;5.196;2022-08-01T05:26:19;1.65;;;1.55;;
20731;SDS011;10527;52.124;5.196;2022-08-01T05:28:47;3.25;;;1.42;;
20731;SDS011;10527;52.124;5.196;2022-08-01T05:31:14;1.70;;;1.38;;
20731;SDS011;10527;52.124;5.196;2022-08-01T05:33:40;2.05;;;1.42;;
20731;SDS011;10527;52.124;5.196;2022-08-01T05:36:07;1.55;;;1.30;;
20731;SDS011;10527;52.124;5.196;2022-08-01T05:38:34;1.55;;;1.10;;
20731;SDS011;10527;52.124;5.196;2022-08-01T05:41:01;1.42;;;1.00;;
20731;SDS011;10527;52.124;5.196;2022-08-01T05:43:28;1.00;;;0.90;;
20731;SDS011;10527;52.124;5.196;2022-08-01T05:45:54;0.77;;;0.73;;
20731;SDS011;10527;52.124;5.196;2022-08-01T05:48:21;1.23;;;0.80;;
20731;SDS011;10527;52.124;5.196;2022-08-01T05:50:48;1.88;;;0.90;;
20731;SDS011;10527;52.124;5.196;2022-08-01T05:53:15;1.33;;;0.90;;
20731;SDS011;10527;52.124;5.196;2022-08-01T05:55:42;1.00;;;0.88;;
20731;SDS011;10527;52.124;5.196;2022-08-01T05:58:09;2.08;;;1.00;;
20731;SDS011;10527;52.124;5.196;2022-08-01T06:00:37;1.10;;;0.80;;
20731;SDS011;10527;52.124;5.196;2022-08-01T06:03:05;0.88;;;0.60;;
20731;SDS011;10527;52.124;5.196;2022-08-01T06:05:32;1.02;;;0.80;;
20731;SDS011;10527;52.124;5.196;2022-08-01T06:08:00;1.13;;;0.80;;
20731;SDS011;10527;52.124;5.196;2022-08-01T06:10:26;0.90;;;0.68;;
20731;SDS011;10527;52.124;5.196;2022-08-01T06:12:53;1.40;;;0.70;;
20731;SDS011;10527;52.124;5.196;2022-08-01T06:15:20;1.33;;;0.90;;
20731;SDS011;10527;52.124;5.196;2022-08-01T06:17:47;0.95;;;0.80;;
20731;SDS011;10527;52.124;5.196;2022-08-01T06:20:14;0.70;;;0.70;;
20731;SDS011;10527;52.124;5.196;2022-08-01T06:22:41;1.70;;;1.00;;
20731;SDS011;10527;52.124;5.196;2022-08-01T06:25:08;1.77;;;0.93;;
20731;SDS011;10527;52.124;5.196;2022-08-01T06:27:35;2.25;;;0.82;;
20731;SDS011;10527;52.124;5.196;2022-08-01T06:30:02;1.00;;;0.70;;
20731;SDS011;10527;52.124;5.196;2022-08-01T06:32:30;0.85;;;0.70;;
20731;SDS011;10527;52.124;5.196;2022-08-01T06:34:57;1.30;;;0.80;;
20731;SDS011;10527;52.124;5.196;2022-08-01T06:37:28;1.17;;;0.70;;
20731;SDS011;10527;52.124;5.196;2022-08-01T06:40:07;1.25;;;0.80;;
20731;SDS011;10527;52.124;5.196;2022-08-01T06:42:42;0.70;;;0.70;;
20731;SDS011;10527;52.124;5.196;2022-08-01T06:45:12;1.63;;;0.93;;
20731;SDS011;10527;52.124;5.196;2022-08-01T06:47:41;1.52;;;0.90;;
20731;SDS011;10527;52.124;5.196;2022-08-01T06:50:15;2.28;;;0.85;;
20731;SDS011;10527;52.124;5.196;2022-08-01T06:52:43;1.10;;;1.00;;
20731;SDS011;10527;52.124;5.196;2022-08-01T06:55:10;1.60;;;1.10;;
20731;SDS011;10527;52.124;5.196;2022-08-01T06:57:44;2.28;;;1.20;;
20731;SDS011;10527;52.124;5.196;2022-08-01T07:00:17;3.67;;;1.15;;
20731;SDS011;10527;52.124;5.196;2022-08-01T07:02:51;4.07;;;1.20;;
20731;SDS011;10527;52.124;5.196;2022-08-01T07:05:20;4.78;;;1.15;;
20731;SDS011;10527;52.124;5.196;2022-08-01T07:07:48;2.30;;;1.05;;
20731;SDS011;10527;52.124;5.196;2022-08-01T07:10:16;4.90;;;1.45;;
20731;SDS011;10527;52.124;5.196;2022-08-01T07:12:43;3.78;;;1.17;;
20731;SDS011;10527;52.124;5.196;2022-08-01T07:15:10;8.27;;;1.38;;
20731;SDS011;10527;52.124;5.196;2022-08-01T07:17:38;4.95;;;1.52;;
20731;SDS011;10527;52.124;5.196;2022-08-01T07:20:10;4.10;;;1.58;;
20731;SDS011;10527;52.124;5.196;2022-08-01T07:22:41;3.55;;;1.48;;
20731;SDS011;10527;52.124;5.196;2022-08-01T07:25:12;4.05;;;1.60;;
20731;SDS011;10527;52.124;5.196;2022-08-01T07:27:40;5.70;;;1.52;;
20731;SDS011;10527;52.124;5.196;2022-08-01T07:30:07;4.25;;;1.50;;
20731;SDS011;10527;52.124;5.196;2022-08-01T07:32:34;7.30;;;1.73;;
20731;SDS011;10527;52.124;5.196;2022-08-01T07:35:01;3.58;;;1.65;;
20731;SDS011;10527;52.124;5.196;2022-08-01T07:37:30;6.95;;;1.88;;
20731;SDS011;10527;52.124;5.196;2022-08-01T07:40:14;7.25;;;2.05;;
20731;SDS011;10527;52.124;5.196;2022-08-01T07:42:43;9.32;;;2.65;;
20731;SDS011;10527;52.124;5.196;2022-08-01T07:45:11;9.05;;;2.47;;
20731;SDS011;10527;52.124;5.196;2022-08-01T07:47:39;7.75;;;1.70;;
20731;SDS011;10527;52.124;5.196;2022-08-01T07:50:06;3.38;;;1.40;;
20731;SDS011;10527;52.124;5.196;2022-08-01T07:52:34;6.68;;;1.58;;
20731;SDS011;10527;52.124;5.196;2022-08-01T07:55:00;7.93;;;1.85;;
20731;SDS011;10527;52.124;5.196;2022-08-01T07:57:28;5.53;;;1.63;;
20731;SDS011;10527;52.124;5.196;2022-08-01T07:59:55;4.28;;;1.40;;
20731;SDS011;10527;52.124;5.196;2022-08-01T08:02:22;4.45;;;1.73;;
20731;SDS011;10527;52.124;5.196;2022-08-01T08:04:49;3.88;;;1.30;;
20731;SDS011;10527;52.124;5.196;2022-08-01T08:07:16;4.22;;;1.35;;
20731;SDS011;10527;52.124;5.196;2022-08-01T08:09:42;4.47;;;1.23;;
20731;SDS011;10527;52.124;5.196;2022-08-01T08:12:16;6.93;;;1.60;;
20731;SDS011;10527;52.124;5.196;2022-08-01T08:14:43;4.82;;;1.50;;
20731;SDS011;10527;52.124;5.196;2022-08-01T08:17:10;7.55;;;2.08;;
20731;SDS011;10527;52.124;5.196;2022-08-01T08:19:37;6.32;;;2.50;;
20731;SDS011;10527;52.124;5.196;2022-08-01T08:22:06;6.82;;;1.48;;
20731;SDS011;10527;52.124;5.196;2022-08-01T08:24:35;4.88;;;1.35;;
20731;SDS011;10527;52.124;5.196;2022-08-01T08:27:12;7.45;;;1.48;;
20731;SDS011;10527;52.124;5.196;2022-08-01T08:29:39;5.53;;;1.23;;
20731;SDS011;10527;52.124;5.196;2022-08-01T08:32:06;6.93;;;1.52;;
20731;SDS011;10527;52.124;5.196;2022-08-01T08:34:34;8.07;;;1.63;;
20731;SDS011;10527;52.124;5.196;2022-08-01T08:37:01;7.45;;;1.50;;
20731;SDS011;10527;52.124;5.196;2022-08-01T08:39:28;7.00;;;1.60;;
20731;SDS011;10527;52.124;5.196;2022-08-01T08:42:06;4.25;;;1.27;;
20731;SDS011;10527;52.124;5.196;2022-08-01T08:44:36;5.00;;;1.40;;
20731;SDS011;10527;52.124;5.196;2022-08-01T08:47:10;4.38;;;1.20;;
20731;SDS011;10527;52.124;5.196;2022-08-01T08:49:45;5.47;;;1.42;;
20731;SDS011;10527;52.124;5.196;2022-08-01T08:52:15;7.55;;;1.30;;
20731;SDS011;10527;52.124;5.196;2022-08-01T08:54:44;7.97;;;1.40;;
20731;SDS011;10527;52.124;5.196;2022-08-01T08:57:14;6.28;;;1.15;;
20731;SDS011;10527;52.124;5.196;2022-08-01T08:59:43;6.05;;;1.02;;
20731;SDS011;10527;52.124;5.196;2022-08-01T09:02:11;8.38;;;2.10;;
20731;SDS011;10527;52.124;5.196;2022-08-01T09:04:40;4.95;;;1.98;;
20731;SDS011;10527;52.124;5.196;2022-08-01T09:07:07;8.00;;;1.52;;
20731;SDS011;10527;52.124;5.196;2022-08-01T09:09:37;6.45;;;1.30;;
20731;SDS011;10527;52.124;5.196;2022-08-01T09:12:07;8.27;;;1.45;;
20731;SDS011;10527;52.124;5.196;2022-08-01T09:14:35;4.15;;;1.20;;
20731;SDS011;10527;52.124;5.196;2022-08-01T09:17:12;4.00;;;1.38;;
20731;SDS011;10527;52.124;5.196;2022-08-01T09:19:43;2.92;;;1.20;;
20731;SDS011;10527;52.124;5.196;2022-08-01T09:22:23;5.40;;;1.13;;
20731;SDS011;10527;52.124;5.196;2022-08-01T09:25:07;4.78;;;1.45;;
20731;SDS011;10527;52.124;5.196;2022-08-01T09:27:37;5.90;;;1.23;;
20731;SDS011;10527;52.124;5.196;2022-08-01T09:33:07;3.72;;;0.90;;
20731;SDS011;10527;52.124;5.196;2022-08-01T09:35:48;4.40;;;0.95;;
20731;SDS011;10527;52.124;5.196;2022-08-01T09:38:25;3.33;;;0.93;;
20731;SDS011;10527;52.124;5.196;2022-08-01T09:41:16;6.30;;;1.30;;
20731;SDS011;10527;52.124;5.196;2022-08-01T09:43:49;7.22;;;1.35;;
20731;SDS011;10527;52.124;5.196;2022-08-01T09:46:16;8.55;;;1.67;;
20731;SDS011;10527;52.124;5.196;2022-08-01T09:49:02;4.63;;;1.10;;
20731;SDS011;10527;52.124;5.196;2022-08-01T09:51:36;3.38;;;1.13;;
20731;SDS011;10527;52.124;5.196;2022-08-01T09:54:32;5.03;;;0.90;;
20731;SDS011;10527;52.124;5.196;2022-08-01T09:57:16;2.40;;;0.75;;
20731;SDS011;10527;52.124;5.196;2022-08-01T09:59:47;3.38;;;0.80;;
20731;SDS011;10527;52.124;5.196;2022-08-01T10:02:26;6.82;;;1.60;;
20731;SDS011;10527;52.124;5.196;2022-08-01T10:05:09;3.17;;;0.85;;
20731;SDS011;10527;52.124;5.196;2022-08-01T10:08:03;3.53;;;1.02;;
20731;SDS011;10527;52.124;5.196;2022-08-01T10:10:33;3.00;;;0.90;;
20731;SDS011;10527;52.124;5.196;2022-08-01T10:13:02;4.53;;;1.10;;
20731;SDS011;10527;52.124;5.196;2022-08-01T10:15:30;4.05;;;1.10;;
20731;SDS011;10527;52.124;5.196;2022-08-01T10:18:06;5.65;;;1.63;;
20731;SDS011;10527;52.124;5.196;2022-08-01T10:20:51;5.60;;;1.38;;
20731;SDS011;10527;52.124;5.196;2022-08-01T10:23:22;3.13;;;1.33;;
20731;SDS011;10527;52.124;5.196;2022-08-01T10:26:06;5.88;;;1.05;;
20731;SDS011;10527;52.124;5.196;2022-08-01T10:28:36;4.47;;;1.02;;
20731;SDS011;10527;52.124;5.196;2022-08-01T10:31:06;6.20;;;0.90;;
20731;SDS011;10527;52.124;5.196;2022-08-01T10:33:40;5.47;;;1.10;;
20731;SDS011;10527;52.124;5.196;2022-08-01T10:36:21;5.90;;;1.00;;
20731;SDS011;10527;52.124;5.196;2022-08-01T10:38:51;4.65;;;1.13;;
20731;SDS011;10527;52.124;5.196;2022-08-01T10:41:21;4.85;;;1.00;;
20731;SDS011;10527;52.124;5.196;2022-08-01T10:43:50;4.82;;;1.50;;
20731;SDS011;10527;52.124;5.196;2022-08-01T10:46:20;4.43;;;0.93;;
20731;SDS011;10527;52.124;5.196;2022-08-01T10:48:54;4.97;;;1.00;;
20731;SDS011;10527;52.124;5.196;2022-08-01T10:51:55;4.30;;;0.77;;
20731;SDS011;10527;52.124;5.196;2022-08-01T10:54:25;4.07;;;1.00;;
20731;SDS011;10527;52.124;5.196;2022-08-01T10:56:53;5.60;;;0.93;;
20731;SDS011;10527;52.124;5.196;2022-08-01T10:59:23;5.07;;;0.80;;
20731;SDS011;10527;52.124;5.196;2022-08-01T11:02:31;5.93;;;1.20;;
20731;SDS011;10527;52.124;5.196;2022-08-01T11:05:11;3.90;;;0.90;;
20731;SDS011;10527;52.124;5.196;2022-08-01T11:07:52;4.53;;;1.02;;
20731;SDS011;10527;52.124;5.196;2022-08-01T11:10:25;8.05;;;1.20;;
20731;SDS011;10527;52.124;5.196;2022-08-01T11:13:10;2.80;;;0.65;;
20731;SDS011;10527;52.124;5.196;2022-08-01T11:15:39;3.85;;;1.17;;
20731;SDS011;10527;52.124;5.196;2022-08-01T11:18:29;4.72;;;0.82;;
20731;SDS011;10527;52.124;5.196;2022-08-01T11:21:02;4.40;;;1.52;;
20731;SDS011;10527;52.124;5.196;2022-08-01T11:23:50;6.72;;;1.00;;
20731;SDS011;10527;52.124;5.196;2022-08-01T11:26:23;4.03;;;0.70;;
20731;SDS011;10527;52.124;5.196;2022-08-01T11:29:11;4.38;;;1.10;;
20731;SDS011;10527;52.124;5.196;2022-08-01T11:31:46;4.30;;;1.15;;
20731;SDS011;10527;52.124;5.196;2022-08-01T11:34:14;5.90;;;1.00;;
20731;SDS011;10527;52.124;5.196;2022-08-01T11:36:41;2.72;;;0.68;;
20731;SDS011;10527;52.124;5.196;2022-08-01T11:39:25;2.90;;;0.60;;
20731;SDS011;10527;52.124;5.196;2022-08-01T11:41:54;3.08;;;0.80;;
20731;SDS011;10527;52.124;5.196;2022-08-01T11:44:49;6.18;;;0.85;;
20731;SDS011;10527;52.124;5.196;2022-08-01T11:47:17;3.60;;;1.00;;
20731;SDS011;10527;52.124;5.196;2022-08-01T11:50:04;2.47;;;0.98;;
20731;SDS011;10527;52.124;5.196;2022-08-01T11:52:32;4.15;;;1.33;;
20731;SDS011;10527;52.124;5.196;2022-08-01T11:57:28;2.20;;;0.60;;
20731;SDS011;10527;52.124;5.196;2022-08-01T12:00:12;5.32;;;0.60;;
20731;SDS011;10527;52.124;5.196;2022-08-01T12:02:48;3.85;;;0.82;;
20731;SDS011;10527;52.124;5.196;2022-08-01T12:05:26;2.92;;;0.93;;
20731;SDS011;10527;52.124;5.196;2022-08-01T12:07:56;2.92;;;0.63;;
20731;SDS011;10527;52.124;5.196;2022-08-01T12:10:28;2.60;;;0.70;;
20731;SDS011;10527;52.124;5.196;2022-08-01T12:13:14;2.92;;;1.10;;
20731;SDS011;10527;52.124;5.196;2022-08-01T12:15:41;1.70;;;0.60;;
20731;SDS011;10527;52.124;5.196;2022-08-01T12:18:08;1.63;;;0.50;;
20731;SDS011;10527;52.124;5.196;2022-08-01T12:20:37;2.80;;;0.77;;
20731;SDS011;10527;52.124;5.196;2022-08-01T12:23:21;2.97;;;0.65;;
20731;SDS011;10527;52.124;5.196;2022-08-01T12:25:52;3.63;;;0.55;;
20731;SDS011;10527;52.124;5.196;2022-08-01T12:28:19;1.85;;;0.50;;
20731;SDS011;10527;52.124;5.196;2022-08-01T12:30:47;1.63;;;0.65;;
20731;SDS011;10527;52.124;5.196;2022-08-01T12:33:19;3.10;;;0.60;;
20731;SDS011;10527;52.124;5.196;2022-08-01T12:35:47;1.98;;;0.50;;
20731;SDS011;10527;52.124;5.196;2022-08-01T12:38:18;1.25;;;0.63;;
20731;SDS011;10527;52.124;5.196;2022-08-01T12:40:53;2.35;;;0.43;;
20731;SDS011;10527;52.124;5.196;2022-08-01T12:43:21;0.85;;;0.40;;
20731;SDS011;10527;52.124;5.196;2022-08-01T12:45:55;1.92;;;0.60;;
20731;SDS011;10527;52.124;5.196;2022-08-01T12:48:26;3.47;;;1.25;;
20731;SDS011;10527;52.124;5.196;2022-08-01T12:50:56;4.38;;;0.70;;
20731;SDS011;10527;52.124;5.196;2022-08-01T12:53:28;0.47;;;0.30;;
20731;SDS011;10527;52.124;5.196;2022-08-01T12:56:06;3.28;;;0.70;;
20731;SDS011;10527;52.124;5.196;2022-08-01T12:58:34;1.85;;;0.43;;
20731;SDS011;10527;52.124;5.196;2022-08-01T13:01:03;0.90;;;0.50;;
20731;SDS011;10527;52.124;5.196;2022-08-01T13:03:40;1.88;;;0.60;;
20731;SDS011;10527;52.124;5.196;2022-08-01T13:06:11;3.35;;;0.70;;
20731;SDS011;10527;52.124;5.196;2022-08-01T13:08:43;1.25;;;0.80;;
20731;SDS011;10527;52.124;5.196;2022-08-01T13:11:12;3.92;;;0.60;;
20731;SDS011;10527;52.124;5.196;2022-08-01T13:16:17;1.42;;;0.45;;
20731;SDS011;10527;52.124;5.196;2022-08-01T13:19:03;1.75;;;0.50;;
20731;SDS011;10527;52.124;5.196;2022-08-01T13:21:32;2.55;;;0.50;;
20731;SDS011;10527;52.124;5.196;2022-08-01T13:24:28;3.13;;;0.40;;
20731;SDS011;10527;52.124;5.196;2022-08-01T13:26:59;2.05;;;0.50;;
20731;SDS011;10527;52.124;5.196;2022-08-01T13:29:35;1.88;;;0.40;;
20731;SDS011;10527;52.124;5.196;2022-08-01T13:32:16;1.70;;;0.68;;
20731;SDS011;10527;52.124;5.196;2022-08-01T13:35:04;1.92;;;0.40;;
20731;SDS011;10527;52.124;5.196;2022-08-01T13:37:35;1.02;;;0.40;;
20731;SDS011;10527;52.124;5.196;2022-08-01T13:40:26;2.38;;;0.75;;
20731;SDS011;10527;52.124;5.196;2022-08-01T13:42:53;4.05;;;0.50;;
20731;SDS011;10527;52.124;5.196;2022-08-01T13:45:26;0.73;;;0.32;;
20731;SDS011;10527;52.124;5.196;2022-08-01T13:47:52;0.65;;;0.40;;
20731;SDS011;10527;52.124;5.196;2022-08-01T13:50:38;1.55;;;0.70;;
20731;SDS011;10527;52.124;5.196;2022-08-01T13:53:04;1.20;;;0.40;;
20731;SDS011;10527;52.124;5.196;2022-08-01T13:55:34;0.93;;;0.45;;
20731;SDS011;10527;52.124;5.196;2022-08-01T13:58:00;0.57;;;0.40;;
20731;SDS011;10527;52.124;5.196;2022-08-01T14:00:29;1.10;;;0.63;;
20731;SDS011;10527;52.124;5.196;2022-08-01T14:02:55;0.30;;;0.22;;
20731;SDS011;10527;52.124;5.196;2022-08-01T14:05:22;0.60;;;0.40;;
20731;SDS011;10527;52.124;5.196;2022-08-01T14:07:49;2.50;;;0.60;;
20731;SDS011;10527;52.124;5.196;2022-08-01T14:10:21;2.08;;;1.00;;
20731;SDS011;10527;52.124;5.196;2022-08-01T14:12:51;2.15;;;0.65;;
20731;SDS011;10527;52.124;5.196;2022-08-01T14:15:22;2.15;;;0.50;;
20731;SDS011;10527;52.124;5.196;2022-08-01T14:18:04;1.42;;;0.50;;
20731;SDS011;10527;52.124;5.196;2022-08-01T14:20:36;4.75;;;0.80;;
20731;SDS011;10527;52.124;5.196;2022-08-01T14:23:05;2.40;;;0.50;;
20731;SDS011;10527;52.124;5.196;2022-08-01T14:25:35;0.85;;;0.43;;
20731;SDS011;10527;52.124;5.196;2022-08-01T14:28:24;3.70;;;0.57;;
20731;SDS011;10527;52.124;5.196;2022-08-01T14:30:54;2.63;;;0.60;;
20731;SDS011;10527;52.124;5.196;2022-08-01T14:33:23;2.05;;;0.52;;
20731;SDS011;10527;52.124;5.196;2022-08-01T14:35:51;1.13;;;0.40;;
20731;SDS011;10527;52.124;5.196;2022-08-01T14:38:38;1.33;;;0.43;;
20731;SDS011;10527;52.124;5.196;2022-08-01T14:41:06;1.30;;;0.40;;
20731;SDS011;10527;52.124;5.196;2022-08-01T14:43:34;1.45;;;0.60;;
20731;SDS011;10527;52.124;5.196;2022-08-01T14:46:01;2.55;;;0.38;;
20731;SDS011;10527;52.124;5.196;2022-08-01T14:48:29;3.65;;;0.50;;
20731;SDS011;10527;52.124;5.196;2022-08-01T14:50:57;1.25;;;0.47;;
20731;SDS011;10527;52.124;5.196;2022-08-01T14:53:29;1.52;;;0.50;;
20731;SDS011;10527;52.124;5.196;2022-08-01T14:56:01;0.77;;;0.40;;
20731;SDS011;10527;52.124;5.196;2022-08-01T14:58:29;2.63;;;0.77;;
20731;SDS011;10527;52.124;5.196;2022-08-01T15:00:56;4.10;;;0.90;;
20731;SDS011;10527;52.124;5.196;2022-08-01T15:03:24;1.05;;;0.40;;
20731;SDS011;10527;52.124;5.196;2022-08-01T15:05:51;1.77;;;0.40;;
20731;SDS011;10527;52.124;5.196;2022-08-01T15:08:18;1.95;;;0.50;;
20731;SDS011;10527;52.124;5.196;2022-08-01T15:10:45;1.83;;;0.47;;
20731;SDS011;10527;52.124;5.196;2022-08-01T15:13:12;2.33;;;0.32;;
20731;SDS011;10527;52.124;5.196;2022-08-01T15:15:39;2.65;;;0.50;;
20731;SDS011;10527;52.124;5.196;2022-08-01T15:18:08;2.90;;;0.50;;
20731;SDS011;10527;52.124;5.196;2022-08-01T15:20:35;2.53;;;0.50;;
20731;SDS011;10527;52.124;5.196;2022-08-01T15:23:04;0.80;;;0.30;;
20731;SDS011;10527;52.124;5.196;2022-08-01T15:25:31;6.03;;;1.40;;
20731;SDS011;10527;52.124;5.196;2022-08-01T15:28:07;3.05;;;0.60;;
20731;SDS011;10527;52.124;5.196;2022-08-01T15:30:36;1.25;;;0.30;;
20731;SDS011;10527;52.124;5.196;2022-08-01T15:33:03;1.95;;;0.50;;
20731;SDS011;10527;52.124;5.196;2022-08-01T15:35:30;2.80;;;0.50;;
20731;SDS011;10527;52.124;5.196;2022-08-01T15:37:57;2.75;;;0.47;;
20731;SDS011;10527;52.124;5.196;2022-08-01T15:40:24;1.55;;;0.40;;